createdAt,value
2018-01-08T00:00:13.838Z,10.30
2018-01-08T00:01:13.819Z,9.80
2018-01-08T00:02:13.794Z,8.70
2018-01-08T00:03:13.766Z,8.70
2018-01-08T00:04:13.745Z,10.20
2018-01-08T00:05:13.722Z,8.60
2018-01-08T00:06:13.697Z,9.30
2018-01-08T00:07:13.674Z,11.00
2018-01-08T00:08:13.650Z,9.20
2018-01-08T00:09:13.638Z,11.50
2018-01-08T00:10:13.613Z,9.40
2018-01-08T00:11:13.581Z,9.30
2018-01-08T00:12:13.557Z,10.90
2018-01-08T00:13:13.543Z,10.30
2018-01-08T00:14:13.514Z,10.20
2018-01-08T00:15:13.485Z,9.30
2018-01-08T00:16:13.465Z,10.30
2018-01-08T00:17:13.434Z,10.50
2018-01-08T00:18:13.410Z,12.30
2018-01-08T00:19:13.393Z,10.50
2018-01-08T00:20:13.367Z,9.20
2018-01-08T00:21:13.345Z,9.80
2018-01-08T00:22:13.324Z,10.80
2018-01-08T00:23:13.300Z,10.70
2018-01-08T00:24:13.273Z,9.50
2018-01-08T00:25:13.254Z,9.40
2018-01-08T00:26:13.219Z,11.20
2018-01-08T00:27:13.200Z,9.50
2018-01-08T00:28:13.194Z,9.60
2018-01-08T00:29:13.157Z,9.40
2018-01-08T00:30:13.130Z,11.00
2018-01-08T00:31:13.109Z,10.40
2018-01-08T00:32:13.086Z,8.80
2018-01-08T00:33:13.057Z,9.30
2018-01-08T00:34:13.036Z,8.40
2018-01-08T00:35:13.016Z,11.30
2018-01-08T00:36:12.990Z,10.40
2018-01-08T00:37:12.998Z,8.70
2018-01-08T00:38:12.961Z,9.80
2018-01-08T00:39:12.929Z,11.20
2018-01-08T00:40:12.914Z,11.70
2018-01-08T00:41:12.920Z,9.10
2018-01-08T00:42:12.843Z,10.80
2018-01-08T00:43:12.827Z,9.50
2018-01-08T00:44:12.801Z,9.40
2018-01-08T00:45:12.779Z,10.80
2018-01-08T00:46:12.754Z,10.10
2018-01-08T00:47:12.726Z,10.30
2018-01-08T00:48:12.715Z,10.40
2018-01-08T00:49:12.687Z,9.10
2018-01-08T00:50:12.659Z,9.90
2018-01-08T00:51:12.643Z,10.40
2018-01-08T00:52:12.631Z,9.40
2018-01-08T00:53:12.590Z,10.80
2018-01-08T00:54:12.568Z,10.50
2018-01-08T00:55:12.544Z,9.30
2018-01-08T00:56:12.522Z,12.20
2018-01-08T00:57:12.496Z,11.60
2018-01-08T00:58:12.471Z,9.90
2018-01-08T00:59:12.449Z,10.00
2018-01-08T01:00:12.423Z,10.60
2018-01-08T01:01:12.404Z,11.10
2018-01-08T01:02:12.380Z,8.90
2018-01-08T01:03:12.347Z,9.90
2018-01-08T01:04:12.330Z,11.00
2018-01-08T01:05:12.308Z,8.40
2018-01-08T01:06:12.283Z,9.30
2018-01-08T01:07:12.257Z,8.90
2018-01-08T01:08:12.235Z,9.70
2018-01-08T01:09:12.214Z,10.30
2018-01-08T01:10:12.208Z,12.00
2018-01-08T01:11:12.168Z,9.50
2018-01-08T01:12:12.144Z,13.30
2018-01-08T01:13:12.120Z,10.30
2018-01-08T01:14:12.102Z,8.70
2018-01-08T01:15:12.073Z,10.10
2018-01-08T01:16:12.050Z,9.90
2018-01-08T01:17:12.027Z,9.90
2018-01-08T01:18:12.002Z,9.40
2018-01-08T01:19:11.982Z,10.20
2018-01-08T01:20:11.959Z,10.40
2018-01-08T01:21:11.932Z,9.90
2018-01-08T01:22:11.919Z,11.40
2018-01-08T01:23:11.889Z,13.10
2018-01-08T01:24:11.865Z,8.60
2018-01-08T01:25:11.839Z,11.40
2018-01-08T01:26:11.814Z,9.80
2018-01-08T01:27:11.787Z,10.00
2018-01-08T01:28:11.774Z,8.70
2018-01-08T01:29:11.752Z,8.60
2018-01-08T01:30:11.722Z,8.00
2018-01-08T01:31:11.711Z,11.80
2018-01-08T01:32:11.675Z,11.10
2018-01-08T01:33:11.656Z,8.50
2018-01-08T01:34:11.622Z,11.90
2018-01-08T01:35:11.603Z,9.70
2018-01-08T01:36:11.586Z,8.80
2018-01-08T01:37:11.554Z,8.90
2018-01-08T01:38:11.534Z,10.70
2018-01-08T01:39:11.522Z,9.20
2018-01-08T01:40:11.488Z,11.20
2018-01-08T01:41:11.469Z,10.20
2018-01-08T01:42:11.444Z,12.40
2018-01-08T01:43:11.418Z,8.00
2018-01-08T01:44:11.391Z,10.20
2018-01-08T01:45:11.377Z,11.20
2018-01-08T01:46:11.350Z,10.70
2018-01-08T01:47:11.343Z,9.20
2018-01-08T01:48:11.305Z,10.90
2018-01-08T01:49:11.272Z,9.80
2018-01-08T01:50:11.272Z,8.70
2018-01-08T01:51:11.231Z,11.30
2018-01-08T01:52:11.210Z,12.10
2018-01-08T01:53:11.185Z,9.20
2018-01-08T01:54:11.161Z,10.50
2018-01-08T01:55:11.138Z,9.20
2018-01-08T01:56:11.118Z,10.50
2018-01-08T01:57:11.100Z,11.40
2018-01-08T01:58:11.067Z,11.90
2018-01-08T01:59:11.046Z,10.70
2018-01-08T02:00:11.024Z,10.60
2018-01-08T02:01:10.995Z,10.60
2018-01-08T02:02:10.981Z,11.10
2018-01-08T02:03:10.954Z,9.70
2018-01-08T02:04:10.931Z,11.00
2018-01-08T02:05:10.903Z,8.00
2018-01-08T02:06:10.884Z,11.40
2018-01-08T02:07:10.865Z,9.30
2018-01-08T02:08:10.836Z,11.30
2018-01-08T02:09:10.815Z,11.30
2018-01-08T02:10:10.791Z,10.30
2018-01-08T02:11:10.764Z,9.60
2018-01-08T02:12:10.744Z,10.20
2018-01-08T02:13:10.725Z,12.40
2018-01-08T02:14:10.705Z,10.20
2018-01-08T02:15:10.740Z,10.40
2018-01-08T02:16:10.653Z,8.80
2018-01-08T02:17:10.630Z,10.90
2018-01-08T02:18:10.605Z,11.60
2018-01-08T02:19:10.584Z,10.80
2018-01-08T02:20:10.560Z,14.30
2018-01-08T02:21:10.536Z,13.70
2018-01-08T02:22:10.510Z,10.70
2018-01-08T02:23:10.490Z,10.00
2018-01-08T02:24:10.469Z,11.50
2018-01-08T02:25:10.440Z,10.60
2018-01-08T02:26:10.428Z,10.60
2018-01-08T02:27:10.397Z,11.10
2018-01-08T02:28:10.365Z,11.90
2018-01-08T02:29:10.350Z,11.40
2018-01-08T02:30:10.330Z,9.30
2018-01-08T02:31:10.307Z,10.10
2018-01-08T02:32:10.280Z,11.60
2018-01-08T02:33:10.260Z,11.20
2018-01-08T02:34:10.238Z,12.80
2018-01-08T02:35:10.203Z,10.50
2018-01-08T02:36:10.188Z,11.30
2018-01-08T02:37:10.167Z,11.00
2018-01-08T02:38:10.144Z,12.20
2018-01-08T02:39:10.124Z,10.10
2018-01-08T02:40:10.102Z,10.80
2018-01-08T02:41:10.082Z,12.20
2018-01-08T02:42:10.044Z,9.10
2018-01-08T02:43:10.034Z,10.30
2018-01-08T02:44:10.006Z,10.50
2018-01-08T02:45:09.983Z,11.70
2018-01-08T02:46:09.958Z,10.60
2018-01-08T02:47:09.935Z,9.80
2018-01-08T02:48:09.912Z,9.70
2018-01-08T02:49:09.888Z,9.10
2018-01-08T02:50:09.866Z,10.50
2018-01-08T02:51:09.849Z,10.40
2018-01-08T02:52:09.820Z,10.30
2018-01-08T02:53:09.797Z,12.30
2018-01-08T02:54:09.775Z,10.40
2018-01-08T02:55:09.752Z,10.00
2018-01-08T02:56:09.727Z,10.80
2018-01-08T02:57:09.718Z,9.00
2018-01-08T02:58:09.682Z,10.30
2018-01-08T02:59:09.662Z,9.50
2018-01-08T03:00:09.641Z,10.70
2018-01-08T03:01:09.617Z,10.00
2018-01-08T03:02:09.585Z,9.70
2018-01-08T03:03:09.568Z,9.00
2018-01-08T03:04:09.544Z,10.40
2018-01-08T03:05:09.523Z,10.10
2018-01-08T03:06:09.495Z,9.10
2018-01-08T03:07:09.480Z,11.60
2018-01-08T03:08:09.453Z,9.60
2018-01-08T03:09:09.432Z,10.40
2018-01-08T03:10:09.413Z,10.70
2018-01-08T03:11:09.387Z,10.90
2018-01-08T03:12:09.354Z,8.60
2018-01-08T03:13:09.339Z,10.10
2018-01-08T03:14:09.313Z,10.20
2018-01-08T03:15:09.292Z,10.30
2018-01-08T03:16:09.268Z,9.40
2018-01-08T03:17:09.242Z,9.10
2018-01-08T03:18:09.222Z,11.70
2018-01-08T03:19:09.205Z,10.40
2018-01-08T03:20:09.177Z,10.00
2018-01-08T03:21:09.157Z,9.00
2018-01-08T03:22:09.131Z,10.80
2018-01-08T03:23:09.109Z,8.70
2018-01-08T03:24:09.084Z,8.90
2018-01-08T03:25:09.063Z,9.50
2018-01-08T03:26:09.046Z,10.70
2018-01-08T03:27:09.022Z,10.70
2018-01-08T03:28:08.996Z,12.70
2018-01-08T03:29:08.971Z,10.50
2018-01-08T03:30:08.948Z,10.30
2018-01-08T03:31:08.941Z,9.00
2018-01-08T03:32:08.906Z,11.10
2018-01-08T03:33:08.879Z,9.00
2018-01-08T03:34:08.855Z,9.20
2018-01-08T03:35:08.833Z,12.00
2018-01-08T03:36:08.809Z,10.40
2018-01-08T03:37:08.786Z,9.50
2018-01-08T03:38:08.760Z,10.90
2018-01-08T03:39:08.741Z,9.10
2018-01-08T03:40:08.710Z,12.80
2018-01-08T03:41:08.697Z,10.90
2018-01-08T03:42:08.675Z,9.10
2018-01-08T03:43:08.653Z,8.60
2018-01-08T03:44:08.625Z,9.60
2018-01-08T03:45:08.606Z,11.10
2018-01-08T03:46:08.577Z,11.40
2018-01-08T03:47:08.556Z,9.80
2018-01-08T03:48:08.532Z,9.10
2018-01-08T03:49:08.512Z,11.40
2018-01-08T03:50:08.492Z,10.20
2018-01-08T03:51:08.464Z,11.00
2018-01-08T03:52:08.442Z,10.60
2018-01-08T03:53:08.415Z,9.40
2018-01-08T03:54:08.390Z,9.30
2018-01-08T03:55:08.367Z,10.50
2018-01-08T03:56:08.349Z,10.70
2018-01-08T03:57:08.332Z,10.60
2018-01-08T03:58:08.303Z,11.00
2018-01-08T03:59:08.284Z,9.60
2018-01-08T04:00:08.258Z,12.00
2018-01-08T04:01:08.230Z,10.90
2018-01-08T04:02:08.218Z,9.40
2018-01-08T04:03:08.188Z,9.80
2018-01-08T04:04:08.165Z,11.40
2018-01-08T04:05:08.140Z,10.30
2018-01-08T04:06:08.117Z,11.60
2018-01-08T04:07:08.095Z,11.80
2018-01-08T04:08:08.064Z,9.30
2018-01-08T04:09:08.052Z,10.70
2018-01-08T04:10:08.027Z,9.80
2018-01-08T04:11:08.005Z,10.70
2018-01-08T04:12:07.984Z,11.10
2018-01-08T04:13:07.966Z,9.90
2018-01-08T04:14:07.935Z,8.20
2018-01-08T04:15:07.912Z,10.70
2018-01-08T04:16:07.888Z,10.00
2018-01-08T04:17:07.863Z,8.50
2018-01-08T04:18:07.837Z,8.80
2018-01-08T04:19:07.833Z,10.30
2018-01-08T04:20:07.794Z,10.50
2018-01-08T04:21:07.799Z,9.40
2018-01-08T04:22:07.747Z,9.10
2018-01-08T04:23:07.725Z,10.00
2018-01-08T04:24:07.704Z,12.50
2018-01-08T04:25:07.681Z,10.20
2018-01-08T04:26:07.656Z,9.70
2018-01-08T04:27:07.634Z,9.10
2018-01-08T04:28:07.604Z,10.10
2018-01-08T04:29:07.585Z,11.40
2018-01-08T04:30:07.561Z,9.90
2018-01-08T04:31:07.542Z,12.40
2018-01-08T04:32:07.521Z,10.50
2018-01-08T04:33:07.509Z,10.60
2018-01-08T04:34:07.471Z,11.50
2018-01-08T04:35:07.449Z,10.50
2018-01-08T04:36:07.431Z,9.00
2018-01-08T04:37:07.406Z,10.30
2018-01-08T04:38:07.385Z,12.40
2018-01-08T04:39:07.358Z,10.10
2018-01-08T04:40:07.336Z,12.90
2018-01-08T04:41:07.314Z,10.60
2018-01-08T04:42:07.286Z,10.90
2018-01-08T04:43:07.269Z,11.90
2018-01-08T04:44:07.243Z,10.70
2018-01-08T04:45:07.234Z,11.60
2018-01-08T04:46:07.192Z,12.90
2018-01-08T04:47:07.176Z,11.60
2018-01-08T04:48:07.147Z,11.90
2018-01-08T04:49:07.129Z,10.30
2018-01-08T04:50:07.105Z,11.50
2018-01-08T04:51:07.087Z,13.10
2018-01-08T04:52:07.058Z,10.40
2018-01-08T04:53:07.035Z,11.30
2018-01-08T04:54:07.011Z,10.50
2018-01-08T04:55:06.985Z,12.50
2018-01-08T04:56:06.968Z,11.00
2018-01-08T04:57:06.945Z,13.00
2018-01-08T04:58:06.970Z,12.20
2018-01-08T04:59:06.899Z,11.90
2018-01-08T05:00:06.876Z,12.60
2018-01-08T05:01:06.857Z,13.70
2018-01-08T05:02:06.848Z,11.70
2018-01-08T05:03:06.807Z,10.70
2018-01-08T05:04:06.780Z,11.90
2018-01-08T05:05:06.763Z,11.80
2018-01-08T05:06:06.745Z,12.20
2018-01-08T05:07:06.727Z,10.70
2018-01-08T05:08:06.707Z,11.80
2018-01-08T05:09:06.666Z,11.60
2018-01-08T05:10:06.666Z,11.40
2018-01-08T05:11:06.635Z,12.20
2018-01-08T05:12:06.640Z,11.40
2018-01-08T05:13:06.596Z,10.20
2018-01-08T05:14:06.571Z,11.30
2018-01-08T05:15:06.549Z,12.50
2018-01-08T05:16:06.513Z,12.40
2018-01-08T05:17:06.497Z,13.00
2018-01-08T05:18:06.474Z,12.10
2018-01-08T05:19:06.483Z,10.60
2018-01-08T05:20:06.434Z,11.10
2018-01-08T05:21:06.421Z,14.70
2018-01-08T05:22:06.375Z,12.40
2018-01-08T05:23:06.382Z,12.80
2018-01-08T05:24:06.357Z,13.40
2018-01-08T05:25:06.329Z,13.00
2018-01-08T05:26:06.281Z,12.50
2018-01-08T05:27:06.277Z,14.60
2018-01-08T05:28:06.234Z,13.90
2018-01-08T05:29:06.227Z,11.20
2018-01-08T05:30:06.185Z,11.50
2018-01-08T05:31:06.159Z,13.80
2018-01-08T05:32:06.179Z,11.30
2018-01-08T05:33:06.132Z,12.10
2018-01-08T05:34:06.102Z,12.90
2018-01-08T05:35:06.096Z,15.20
2018-01-08T05:36:06.066Z,12.70
2018-01-08T05:37:06.029Z,14.70
2018-01-08T05:38:06.015Z,12.40
2018-01-08T05:39:05.982Z,13.40
2018-01-08T05:40:05.968Z,14.90
2018-01-08T05:41:05.949Z,12.40
2018-01-08T05:42:05.911Z,14.60
2018-01-08T05:43:05.886Z,12.60
2018-01-08T05:44:05.894Z,12.70
2018-01-08T05:45:05.844Z,14.30
2018-01-08T05:46:05.820Z,13.70
2018-01-08T05:47:05.800Z,12.80
2018-01-08T05:48:05.772Z,13.80
2018-01-08T05:49:05.757Z,13.20
2018-01-08T05:50:05.737Z,13.30
2018-01-08T05:51:05.706Z,13.50
2018-01-08T05:52:05.681Z,13.40
2018-01-08T05:53:05.664Z,17.60
2018-01-08T05:54:05.640Z,13.80
2018-01-08T05:55:05.625Z,14.70
2018-01-08T05:56:05.586Z,13.30
2018-01-08T05:57:05.578Z,13.80
2018-01-08T05:58:05.550Z,12.60
2018-01-08T05:59:05.517Z,14.40
2018-01-08T06:00:05.492Z,15.40
2018-01-08T06:01:05.497Z,14.10
2018-01-08T06:02:05.462Z,13.30
2018-01-08T06:03:05.425Z,13.60
2018-01-08T06:04:05.405Z,14.50
2018-01-08T06:05:05.377Z,15.40
2018-01-08T06:06:05.358Z,13.50
2018-01-08T06:07:05.333Z,16.20
2018-01-08T06:08:05.320Z,15.20
2018-01-08T06:09:05.304Z,13.80
2018-01-08T06:10:05.276Z,14.70
2018-01-08T06:11:05.253Z,13.30
2018-01-08T06:12:05.216Z,13.40
2018-01-08T06:13:05.198Z,13.40
2018-01-08T06:14:05.178Z,13.90
2018-01-08T06:15:05.163Z,16.40
2018-01-08T06:16:05.141Z,17.30
2018-01-08T06:17:05.110Z,14.30
2018-01-08T06:18:05.122Z,14.40
2018-01-08T06:19:05.088Z,12.20
2018-01-08T06:20:05.045Z,13.70
2018-01-08T06:21:05.026Z,15.70
2018-01-08T06:22:05.032Z,15.20
2018-01-08T06:23:04.967Z,16.10
2018-01-08T06:24:04.979Z,18.60
2018-01-08T06:25:04.930Z,15.60
2018-01-08T06:26:04.911Z,15.00
2018-01-08T06:27:04.871Z,14.90
2018-01-08T06:28:04.876Z,15.30
2018-01-08T06:29:04.836Z,14.40
2018-01-08T06:30:04.824Z,16.50
2018-01-08T06:31:04.807Z,13.60
2018-01-08T06:32:04.762Z,15.70
2018-01-08T06:33:04.739Z,15.00
2018-01-08T06:34:04.712Z,14.70
2018-01-08T06:35:04.714Z,13.90
2018-01-08T06:36:04.689Z,14.50
2018-01-08T06:37:04.651Z,16.40
2018-01-08T06:38:04.619Z,13.30
2018-01-08T06:39:04.619Z,18.80
2018-01-08T06:40:04.574Z,15.90
2018-01-08T06:41:04.577Z,16.10
2018-01-08T06:42:04.526Z,16.90
2018-01-08T06:43:04.504Z,14.10
2018-01-08T06:44:04.486Z,17.20
2018-01-08T06:45:04.460Z,17.00
2018-01-08T06:46:04.445Z,16.90
2018-01-08T06:47:04.417Z,14.30
2018-01-08T06:48:04.386Z,17.00
2018-01-08T06:49:04.372Z,15.40
2018-01-08T06:50:04.357Z,18.20
2018-01-08T06:51:04.335Z,15.40
2018-01-08T06:52:04.297Z,18.60
2018-01-08T06:53:04.279Z,16.40
2018-01-08T06:54:04.265Z,17.40
2018-01-08T06:55:04.239Z,15.90
2018-01-08T06:56:04.217Z,17.10
2018-01-08T06:57:04.238Z,19.10
2018-01-08T06:58:04.179Z,18.70
2018-01-08T06:59:04.160Z,17.40
2018-01-08T07:00:04.171Z,23.10
2018-01-08T07:01:04.104Z,18.50
2018-01-08T07:02:04.077Z,18.40
2018-01-08T07:03:04.045Z,14.80
2018-01-08T07:04:04.081Z,17.30
2018-01-08T07:05:04.028Z,20.10
2018-01-08T07:06:03.985Z,16.40
2018-01-08T07:07:03.976Z,20.60
2018-01-08T07:08:03.941Z,17.20
2018-01-08T07:09:03.939Z,19.40
2018-01-08T07:10:03.879Z,16.70
2018-01-08T07:11:03.859Z,21.10
2018-01-08T07:12:03.840Z,18.60
2018-01-08T07:13:03.827Z,19.40
2018-01-08T07:14:03.834Z,17.90
2018-01-08T07:15:03.798Z,16.00
2018-01-08T07:16:03.784Z,17.10
2018-01-08T07:17:03.761Z,17.50
2018-01-08T07:18:03.716Z,18.70
2018-01-08T07:19:03.680Z,16.10
2018-01-08T07:20:03.681Z,19.50
2018-01-08T07:21:03.633Z,18.00
2018-01-08T07:22:03.651Z,17.40
2018-01-08T07:23:03.588Z,19.60
2018-01-08T07:24:03.559Z,17.60
2018-01-08T07:25:03.535Z,19.70
2018-01-08T07:26:03.525Z,19.40
2018-01-08T07:27:03.489Z,19.80
2018-01-08T07:28:03.462Z,17.60
2018-01-08T07:29:03.438Z,19.10
2018-01-08T07:30:03.417Z,18.60
2018-01-08T07:31:03.398Z,19.40
2018-01-08T07:32:03.375Z,18.90
2018-01-08T07:33:03.395Z,19.70
2018-01-08T07:34:03.378Z,18.80
2018-01-08T07:35:03.309Z,18.80
2018-01-08T07:36:03.302Z,19.60
2018-01-08T07:37:03.261Z,17.40
2018-01-08T07:38:03.366Z,20.20
2018-01-08T07:39:03.223Z,17.90
2018-01-08T07:40:03.193Z,18.00
2018-01-08T07:41:03.176Z,18.10
2018-01-08T07:42:03.158Z,18.50
2018-01-08T07:43:03.146Z,18.10
2018-01-08T07:44:03.131Z,17.90
2018-01-08T07:45:03.076Z,18.80
2018-01-08T07:46:03.161Z,20.10
2018-01-08T07:47:03.092Z,19.00
2018-01-08T07:48:03.038Z,20.90
2018-01-08T07:49:02.975Z,21.80
2018-01-08T07:50:02.962Z,22.70
2018-01-08T07:51:03.044Z,18.90
2018-01-08T07:52:02.975Z,22.90
2018-01-08T07:53:02.884Z,23.10
2018-01-08T07:54:02.913Z,20.40
2018-01-08T07:55:02.867Z,19.60
2018-01-08T07:56:02.898Z,20.80
2018-01-08T07:57:02.814Z,23.30
2018-01-08T07:58:02.820Z,17.60
2018-01-08T07:59:02.772Z,20.20
2018-01-08T08:00:02.728Z,19.40
2018-01-08T08:01:02.737Z,21.50
2018-01-08T08:02:02.746Z,18.10
2018-01-08T08:03:02.660Z,19.20
2018-01-08T08:04:02.640Z,17.60
2018-01-08T08:05:02.636Z,20.40
2018-01-08T08:06:02.570Z,16.10
2018-01-08T08:07:02.613Z,18.90
2018-01-08T08:08:02.550Z,19.50
2018-01-08T08:09:02.526Z,19.40
2018-01-08T08:10:02.517Z,22.20
2018-01-08T08:11:05.534Z,18.40
2018-01-08T08:12:02.499Z,17.10
2018-01-08T08:13:02.497Z,21.70
2018-01-08T08:14:02.420Z,19.20
2018-01-08T08:15:02.427Z,18.30
2018-01-08T08:16:02.381Z,20.30
2018-01-08T08:17:02.374Z,23.10
2018-01-08T08:18:02.379Z,17.70
2018-01-08T08:19:02.350Z,20.40
2018-01-08T08:20:02.307Z,19.90
2018-01-08T08:21:02.267Z,19.70
2018-01-08T08:22:02.283Z,19.30
2018-01-08T08:23:02.227Z,16.30
2018-01-08T08:24:02.204Z,20.70
2018-01-08T08:25:02.160Z,19.00
2018-01-08T08:26:02.170Z,22.20
2018-01-08T08:27:02.296Z,20.10
2018-01-08T08:28:02.174Z,17.10
2018-01-08T08:29:02.102Z,20.00
2018-01-08T08:30:02.075Z,18.40
2018-01-08T08:31:02.051Z,20.00
2018-01-08T08:32:01.995Z,19.80
2018-01-08T08:33:02.001Z,22.10
2018-01-08T08:34:01.994Z,19.20
2018-01-08T08:35:01.980Z,17.90
2018-01-08T08:36:01.921Z,18.20
2018-01-08T08:37:01.896Z,19.20
2018-01-08T08:38:01.849Z,18.00
2018-01-08T08:39:01.881Z,21.30
2018-01-08T08:40:01.876Z,19.20
2018-01-08T08:41:01.920Z,20.00
2018-01-08T08:42:01.782Z,20.10
2018-01-08T08:43:01.760Z,18.00
2018-01-08T08:44:01.692Z,19.10
2018-01-08T08:45:01.732Z,19.70
2018-01-08T08:46:01.668Z,19.60
2018-01-08T08:47:01.670Z,22.70
2018-01-08T08:48:01.595Z,19.30
2018-01-08T08:49:01.607Z,21.40
2018-01-08T08:50:01.577Z,19.50
2018-01-08T08:51:01.642Z,24.60
2018-01-08T08:52:02.239Z,20.40
2018-01-08T08:53:01.476Z,19.20
2018-01-08T08:54:01.479Z,19.20
2018-01-08T08:55:01.457Z,22.10
2018-01-08T08:56:01.412Z,20.30
2018-01-08T08:57:01.434Z,22.10
2018-01-08T08:58:01.417Z,18.70
2018-01-08T08:59:01.422Z,18.60
2018-01-08T09:00:01.324Z,21.10
2018-01-08T09:01:01.304Z,18.50
2018-01-08T09:02:01.315Z,16.20
2018-01-08T09:03:01.304Z,21.90
2018-01-08T09:04:01.252Z,20.00
2018-01-08T09:05:01.231Z,18.10
2018-01-08T09:06:01.224Z,21.20
2018-01-08T09:07:01.153Z,19.00
2018-01-08T09:08:01.128Z,24.10
2018-01-08T09:09:01.114Z,19.10
2018-01-08T09:10:01.117Z,16.10
2018-01-08T09:11:01.125Z,20.40
2018-01-08T09:12:01.055Z,16.80
2018-01-08T09:13:01.039Z,18.50
2018-01-08T09:14:01.004Z,16.60
2018-01-08T09:15:00.977Z,18.60
2018-01-08T09:16:00.958Z,19.20
2018-01-08T09:17:00.945Z,18.90
2018-01-08T09:18:00.904Z,18.20
2018-01-08T09:19:00.952Z,16.80
2018-01-08T09:20:00.894Z,18.70
2018-01-08T09:21:00.840Z,19.10
2018-01-08T09:22:00.836Z,20.30
2018-01-08T09:23:00.802Z,19.70
2018-01-08T09:24:00.778Z,20.50
2018-01-08T09:25:00.798Z,19.30
2018-01-08T09:26:00.718Z,19.60
2018-01-08T09:27:00.709Z,18.50
2018-01-08T09:28:00.682Z,19.20
2018-01-08T09:29:00.688Z,20.70
2018-01-08T09:30:00.623Z,20.90
2018-01-08T09:31:00.601Z,18.70
2018-01-08T09:32:00.589Z,15.50
2018-01-08T09:33:00.574Z,19.30
2018-01-08T09:34:00.532Z,18.00
2018-01-08T09:35:00.500Z,21.50
2018-01-08T09:36:00.492Z,22.10
2018-01-08T09:37:00.452Z,19.60
2018-01-08T09:38:00.445Z,19.70
2018-01-08T09:39:00.437Z,17.50
2018-01-08T09:40:00.437Z,20.30
2018-01-08T09:41:00.424Z,18.80
2018-01-08T09:42:00.369Z,19.70
2018-01-08T09:43:00.361Z,17.00
2018-01-08T09:44:00.314Z,18.10
2018-01-08T09:45:00.289Z,20.50
2018-01-08T09:46:00.275Z,19.30
2018-01-08T09:47:00.236Z,17.80
2018-01-08T09:48:00.229Z,16.30
2018-01-08T09:49:00.260Z,16.60
2018-01-08T09:50:00.429Z,18.30
2018-01-08T09:51:00.199Z,19.00
2018-01-08T09:52:00.142Z,18.50
2018-01-08T09:53:00.165Z,18.30
2018-01-08T09:54:00.234Z,19.70
2018-01-08T09:55:00.038Z,18.80
2018-01-08T09:56:00.061Z,18.90
2018-01-08T09:57:00.027Z,19.00
2018-01-08T09:57:59.991Z,17.60
2018-01-08T09:58:59.957Z,19.10
2018-01-08T09:59:59.926Z,17.90
2018-01-08T10:00:59.910Z,16.50
2018-01-08T10:01:59.907Z,17.70
2018-01-08T10:02:59.948Z,15.50
2018-01-08T10:03:59.857Z,19.10
2018-01-08T10:04:59.817Z,21.00
2018-01-08T10:05:59.808Z,18.80
2018-01-08T10:06:59.801Z,16.60
2018-01-08T10:07:59.781Z,17.30
2018-01-08T10:08:59.746Z,16.60
2018-01-08T10:09:59.737Z,15.90
2018-01-08T10:10:59.742Z,18.90
2018-01-08T10:11:59.729Z,18.90
2018-01-08T10:12:59.658Z,21.50
2018-01-08T10:13:59.617Z,19.80
2018-01-08T10:14:59.588Z,18.60
2018-01-08T10:15:59.574Z,17.60
2018-01-08T10:16:59.540Z,18.10
2018-01-08T10:17:59.535Z,24.00
2018-01-08T10:18:59.495Z,19.90
2018-01-08T10:19:59.474Z,18.50
2018-01-08T10:20:59.502Z,18.30
2018-01-08T10:21:59.421Z,20.10
2018-01-08T10:22:59.411Z,18.30
2018-01-08T10:23:59.379Z,19.90
2018-01-08T10:24:59.377Z,20.10
2018-01-08T10:25:59.363Z,19.00
2018-01-08T10:26:59.332Z,17.70
2018-01-08T10:27:59.304Z,17.70
2018-01-08T10:28:59.390Z,19.40
2018-01-08T10:29:59.275Z,16.90
2018-01-08T10:30:59.241Z,19.40
2018-01-08T10:31:59.234Z,19.70
2018-01-08T10:32:59.223Z,18.20
2018-01-08T10:33:59.153Z,17.10
2018-01-08T10:34:59.134Z,17.20
2018-01-08T10:35:59.120Z,23.90
2018-01-08T10:36:59.084Z,16.90
2018-01-08T10:37:59.079Z,16.40
2018-01-08T10:38:59.100Z,17.80
2018-01-08T10:39:59.031Z,16.50
2018-01-08T10:40:59.024Z,18.30
2018-01-08T10:41:58.971Z,20.60
2018-01-08T10:42:58.989Z,18.30
2018-01-08T10:43:58.944Z,17.20
2018-01-08T10:44:58.902Z,20.10
2018-01-08T10:45:58.914Z,21.70
2018-01-08T10:46:58.892Z,18.00
2018-01-08T10:47:58.840Z,18.50
2018-01-08T10:48:58.814Z,18.80
2018-01-08T10:49:58.800Z,17.50
2018-01-08T10:50:58.796Z,17.30
2018-01-08T10:51:58.757Z,20.60
2018-01-08T10:52:58.731Z,17.90
2018-01-08T10:53:58.723Z,17.60
2018-01-08T10:54:58.708Z,18.30
2018-01-08T10:55:58.657Z,18.80
2018-01-08T10:56:58.691Z,17.70
2018-01-08T10:57:58.630Z,17.80
2018-01-08T10:58:58.604Z,18.00
2018-01-08T10:59:58.590Z,16.60
2018-01-08T11:00:58.536Z,16.10
2018-01-08T11:01:58.520Z,16.20
2018-01-08T11:02:58.540Z,17.50
2018-01-08T11:03:58.492Z,19.00
2018-01-08T11:04:58.462Z,17.80
2018-01-08T11:05:58.442Z,18.60
2018-01-08T11:06:58.434Z,16.90
2018-01-08T11:07:58.408Z,19.80
2018-01-08T11:08:58.423Z,17.70
2018-01-08T11:09:58.355Z,16.90
2018-01-08T11:10:58.324Z,21.00
2018-01-08T11:11:58.316Z,21.70
2018-01-08T11:12:58.293Z,17.30
2018-01-08T11:13:58.356Z,17.30
2018-01-08T11:14:58.229Z,18.80
2018-01-08T11:15:58.218Z,16.50
2018-01-08T11:16:58.213Z,19.60
2018-01-08T11:17:58.225Z,18.70
2018-01-08T11:18:58.167Z,19.80
2018-01-08T11:19:58.191Z,18.40
2018-01-08T11:20:58.158Z,19.60
2018-01-08T11:21:58.111Z,19.50
2018-01-08T11:22:58.085Z,17.30
2018-01-08T11:23:58.052Z,17.50
2018-01-08T11:24:58.087Z,16.20
2018-01-08T11:25:57.991Z,15.60
2018-01-08T11:26:57.975Z,16.50
2018-01-08T11:27:57.957Z,18.50
2018-01-08T11:28:57.960Z,17.50
2018-01-08T11:29:57.914Z,37.70
2018-01-08T11:30:57.913Z,20.40
2018-01-08T11:31:57.879Z,19.00
2018-01-08T11:32:57.882Z,16.40
2018-01-08T11:33:57.812Z,19.40
2018-01-08T11:34:57.803Z,19.90
2018-01-08T11:35:57.767Z,19.70
2018-01-08T11:36:57.796Z,19.80
2018-01-08T11:37:57.756Z,21.00
2018-01-08T11:38:57.918Z,20.80
2018-01-08T11:39:57.716Z,18.70
2018-01-08T11:40:57.687Z,16.80
2018-01-08T11:41:57.718Z,19.80
2018-01-08T11:42:57.639Z,20.80
2018-01-08T11:43:57.628Z,16.10
2018-01-08T11:44:57.569Z,17.60
2018-01-08T11:45:57.550Z,20.70
2018-01-08T11:46:57.536Z,18.50
2018-01-08T11:47:57.505Z,18.30
2018-01-08T11:48:57.480Z,17.70
2018-01-08T11:49:57.465Z,16.50
2018-01-08T11:50:57.483Z,18.30
2018-01-08T11:51:57.410Z,16.00
2018-01-08T11:52:57.415Z,16.90
2018-01-08T11:53:57.376Z,17.20
2018-01-08T11:54:57.363Z,18.50
2018-01-08T11:55:57.357Z,19.10
2018-01-08T11:56:57.320Z,19.80
2018-01-08T11:57:57.297Z,18.20
2018-01-08T11:58:57.262Z,16.10
2018-01-08T11:59:57.241Z,17.90
2018-01-08T12:00:57.256Z,15.80
2018-01-08T12:01:57.192Z,16.80
2018-01-08T12:02:57.212Z,17.30
2018-01-08T12:03:57.190Z,18.30
2018-01-08T12:04:57.168Z,16.70
2018-01-08T12:05:57.127Z,17.50
2018-01-08T12:06:57.107Z,20.00
2018-01-08T12:07:57.074Z,19.70
2018-01-08T12:08:57.094Z,21.00
2018-01-08T12:09:57.089Z,17.40
2018-01-08T12:10:57.028Z,15.80
2018-01-08T12:11:56.994Z,18.20
2018-01-08T12:12:56.996Z,17.80
2018-01-08T12:13:56.972Z,18.70
2018-01-08T12:14:56.926Z,24.30
2018-01-08T12:15:57.637Z,19.00
2018-01-08T12:16:56.881Z,20.70
2018-01-08T12:17:56.869Z,18.00
2018-01-08T12:18:56.838Z,17.90
2018-01-08T12:19:56.844Z,18.80
2018-01-08T12:20:56.805Z,18.30
2018-01-08T12:21:56.825Z,22.80
2018-01-08T12:22:56.772Z,20.00
2018-01-08T12:23:56.772Z,20.20
2018-01-08T12:24:56.835Z,17.30
2018-01-08T12:25:56.741Z,19.30
2018-01-08T12:26:56.677Z,20.70
2018-01-08T12:27:56.717Z,19.10
2018-01-08T12:28:56.700Z,18.70
2018-01-08T12:29:56.606Z,19.80
2018-01-08T12:30:56.583Z,19.90
2018-01-08T12:31:56.564Z,18.60
2018-01-08T12:32:56.584Z,17.80
2018-01-08T12:33:56.594Z,19.30
2018-01-08T12:34:56.512Z,18.40
2018-01-08T12:35:56.471Z,16.10
2018-01-08T12:36:56.456Z,18.40
2018-01-08T12:37:56.451Z,16.20
2018-01-08T12:38:56.416Z,18.80
2018-01-08T12:39:56.455Z,16.80
2018-01-08T12:40:56.375Z,18.50
2018-01-08T12:41:56.343Z,17.30
2018-01-08T12:42:56.341Z,16.50
2018-01-08T12:43:56.351Z,19.80
2018-01-08T12:44:56.350Z,18.50
2018-01-08T12:45:56.275Z,18.20
2018-01-08T12:46:56.277Z,16.80
2018-01-08T12:52:31.638Z,17.70
2018-01-08T12:53:31.565Z,18.70
2018-01-08T12:55:47.380Z,18.60
2018-01-08T12:56:26.000Z,17.50
2018-01-08T13:02:28.160Z,16.30
2018-01-08T13:03:28.062Z,18.80
2018-01-08T13:04:27.999Z,20.40
2018-01-08T13:05:27.877Z,14.90
2018-01-08T13:06:27.998Z,17.10